Time;durP1;ratioP1;P1;durP2;ratioP2;P2;SDS_P1;SDS_P2;PMS_P1;PMS_P2;Temp;Humidity;BMP_temperature;BMP_pressure;BME280_temperature;BME280_humidity;BME280_pressure;Samples;Min_cycle;Max_cycle;Signal;HPM_P1;HPM_P2
2022/05/28 00:01:57;;;;;;;0.55;0.55;;;21.80;48.80;;;;;;5035150;28;20061;-70
2022/05/28 00:04:23;;;;;;;0.70;0.70;;;21.80;48.80;;;;;;5034514;28;20104;-70
2022/05/28 00:06:48;;;;;;;0.55;0.55;;;21.80;48.90;;;;;;5033361;28;20048;-69
2022/05/28 00:09:14;;;;;;;0.60;0.60;;;21.80;48.90;;;;;;5033870;28;20025;-69
2022/05/28 00:11:41;;;;;;;0.60;0.60;;;21.80;48.90;;;;;;5034990;28;20030;-69
2022/05/28 00:14:08;;;;;;;0.70;0.70;;;21.80;48.90;;;;;;5035123;28;20033;-69
2022/05/28 00:16:36;;;;;;;0.63;0.60;;;21.80;48.80;;;;;;5034924;28;20042;-69
2022/05/28 00:19:02;;;;;;;0.95;0.57;;;21.80;48.90;;;;;;5035282;28;20025;-69
2022/05/28 00:21:28;;;;;;;0.60;0.60;;;21.80;48.90;;;;;;5034881;28;20030;-69
2022/05/28 00:23:54;;;;;;;0.50;0.50;;;21.80;48.80;;;;;;5035071;28;20387;-70
2022/05/28 00:26:20;;;;;;;0.60;0.60;;;21.80;48.80;;;;;;5034613;28;20072;-69
2022/05/28 00:28:47;;;;;;;0.50;0.50;;;21.80;48.70;;;;;;5033560;28;20099;-69
2022/05/28 00:31:14;;;;;;;0.63;0.55;;;21.90;48.80;;;;;;5034478;28;20057;-69
2022/05/28 00:33:40;;;;;;;0.50;0.50;;;21.80;48.70;;;;;;5033513;28;20029;-69
2022/05/28 00:36:09;;;;;;;0.60;0.60;;;21.90;48.70;;;;;;5034796;28;20042;-69
2022/05/28 00:38:35;;;;;;;0.52;0.52;;;21.90;48.70;;;;;;5034759;28;20021;-70
2022/05/28 00:41:01;;;;;;;0.50;0.50;;;21.90;48.70;;;;;;5033035;28;20029;-69
2022/05/28 00:43:29;;;;;;;0.50;0.50;;;21.90;48.70;;;;;;5034521;28;20100;-70
2022/05/28 00:46:03;;;;;;;0.60;0.60;;;21.90;48.60;;;;;;5034444;28;20044;-70
2022/05/28 00:48:32;;;;;;;0.50;0.50;;;21.90;48.60;;;;;;5032153;28;20124;-70
2022/05/28 00:51:09;;;;;;;0.50;0.50;;;21.90;48.60;;;;;;5034036;28;20455;-71
2022/05/28 00:53:35;;;;;;;0.57;0.57;;;21.90;48.60;;;;;;5034058;28;20036;-69
2022/05/28 00:56:03;;;;;;;0.50;0.50;;;21.90;48.60;;;;;;5033009;28;20383;-69
2022/05/28 00:58:29;;;;;;;0.40;0.40;;;21.90;48.60;;;;;;5034140;28;20034;-70
2022/05/28 01:00:56;;;;;;;0.60;0.60;;;21.90;48.50;;;;;;5033867;28;20044;-69
2022/05/28 01:03:24;;;;;;;0.52;0.52;;;21.90;48.60;;;;;;5034175;28;20036;-69
2022/05/28 01:06:14;;;;;;;0.50;0.50;;;21.90;48.60;;;;;;5033098;28;20060;-69
2022/05/28 01:09:07;;;;;;;0.43;0.43;;;21.90;48.80;;;;;;5033872;28;20025;-70
2022/05/28 01:11:52;;;;;;;0.57;0.57;;;21.90;48.70;;;;;;5033887;28;20029;-69
2022/05/28 01:14:28;;;;;;;0.60;0.60;;;21.90;48.60;;;;;;5034056;28;20029;-69
2022/05/28 01:17:13;;;;;;;1.40;0.52;;;21.90;48.60;;;;;;5032951;28;20064;-69
2022/05/28 01:20:26;;;;;;;0.70;0.70;;;21.90;48.60;;;;;;5034239;28;20028;-70
2022/05/28 01:23:20;;;;;;;0.50;0.50;;;21.90;48.80;;;;;;5051854;28;20108;-69
2022/05/28 01:26:02;;;;;;;0.50;0.50;;;21.90;48.70;;;;;;5034179;28;20113;-69
2022/05/28 01:28:40;;;;;;;0.50;0.50;;;21.90;48.60;;;;;;5034030;28;20091;-69
2022/05/28 01:31:08;;;;;;;0.50;0.50;;;21.80;48.50;;;;;;5033557;28;20444;-69
2022/05/28 01:33:35;;;;;;;0.50;0.50;;;21.90;48.50;;;;;;5033512;28;20029;-70
2022/05/28 01:36:05;;;;;;;0.60;0.60;;;21.90;48.50;;;;;;5033487;28;20037;-69
2022/05/28 01:38:34;;;;;;;0.47;0.47;;;21.80;48.50;;;;;;5032968;28;20033;-69
2022/05/28 01:41:01;;;;;;;0.40;0.40;;;21.80;48.50;;;;;;5033477;28;20030;-69
2022/05/28 01:43:27;;;;;;;0.60;0.60;;;21.80;48.50;;;;;;5033564;28;20021;-69
2022/05/28 01:45:55;;;;;;;0.65;0.60;;;21.80;48.50;;;;;;5033898;28;20034;-69
2022/05/28 01:48:23;;;;;;;0.40;0.40;;;21.80;48.50;;;;;;5032074;28;20124;-69
2022/05/28 01:50:52;;;;;;;0.45;0.45;;;21.80;48.50;;;;;;5032340;28;20025;-69
2022/05/28 01:56:08;;;;;;;0.60;0.60;;;21.80;48.50;;;;;;5032543;28;20095;-70
2022/05/28 01:58:34;;;;;;;0.52;0.52;;;21.80;48.50;;;;;;5032314;28;20021;-70
2022/05/28 02:01:01;;;;;;;0.57;0.57;;;21.80;48.50;;;;;;5034669;28;20029;-69
2022/05/28 02:03:29;;;;;;;0.50;0.50;;;21.80;48.50;;;;;;5037620;28;20127;-69
2022/05/28 02:05:55;;;;;;;0.70;0.70;;;21.80;48.50;;;;;;5036283;28;20029;-69
2022/05/28 02:08:22;;;;;;;0.60;0.60;;;21.80;49.10;;;;;;5036514;28;20478;-69
2022/05/28 02:11:01;;;;;;;0.63;0.60;;;21.80;48.50;;;;;;5037436;28;20037;-69
2022/05/28 02:13:44;;;;;;;0.50;0.50;;;21.80;48.40;;;;;;5037147;28;20105;-69
2022/05/28 02:16:18;;;;;;;0.60;0.60;;;21.80;48.40;;;;;;5037161;28;20040;-69
2022/05/28 02:18:57;;;;;;;0.60;0.60;;;21.80;48.50;;;;;;5037210;28;20021;-69
2022/05/28 02:21:56;;;;;;;0.57;0.57;;;21.80;48.40;;;;;;5035870;28;20383;-69
2022/05/28 02:24:31;;;;;;;0.60;0.60;;;21.80;48.50;;;;;;5036021;28;20048;-70
2022/05/28 02:27:05;;;;;;;0.60;0.60;;;21.80;48.40;;;;;;5035812;28;20049;-70
2022/05/28 02:29:32;;;;;;;0.65;0.65;;;21.80;48.40;;;;;;5037489;28;20087;-69
2022/05/28 02:31:58;;;;;;;0.55;0.55;;;21.80;48.30;;;;;;5036715;28;20033;-70
2022/05/28 02:34:24;;;;;;;0.60;0.60;;;21.80;48.30;;;;;;5035727;28;20029;-69
2022/05/28 02:36:50;;;;;;;1.02;0.60;;;21.80;48.30;;;;;;5036855;28;20063;-69
2022/05/28 02:39:16;;;;;;;0.55;0.55;;;21.80;48.30;;;;;;5036831;28;20460;-70
2022/05/28 02:41:41;;;;;;;0.50;0.50;;;21.80;48.30;;;;;;5035523;28;20028;-69
2022/05/28 02:44:09;;;;;;;0.55;0.55;;;21.80;48.30;;;;;;5036582;28;20060;-69
2022/05/28 02:46:35;;;;;;;0.68;0.68;;;21.80;48.20;;;;;;5036905;28;20037;-69
2022/05/28 02:49:01;;;;;;;0.90;0.70;;;21.80;48.20;;;;;;5035517;28;20025;-70
2022/05/28 02:51:27;;;;;;;0.47;0.47;;;21.80;48.20;;;;;;5037333;28;20408;-70
2022/05/28 02:53:54;;;;;;;0.60;0.60;;;21.80;48.20;;;;;;5036921;28;20025;-70
2022/05/28 02:56:21;;;;;;;0.50;0.50;;;21.80;48.10;;;;;;5035349;28;20095;-70
2022/05/28 02:58:47;;;;;;;0.60;0.60;;;21.80;48.10;;;;;;5036648;28;20573;-70
2022/05/28 03:01:27;;;;;;;0.82;0.70;;;21.80;48.10;;;;;;5035875;28;20105;-70
2022/05/28 03:03:54;;;;;;;0.60;0.60;;;21.80;48.10;;;;;;5034896;28;20051;-70
2022/05/28 03:06:20;;;;;;;0.80;0.80;;;21.80;48.10;;;;;;5036292;28;20389;-70
2022/05/28 03:08:46;;;;;;;0.57;0.57;;;21.80;48.10;;;;;;5036381;28;20113;-70
2022/05/28 03:11:12;;;;;;;0.52;0.52;;;21.80;48.10;;;;;;5036211;28;20168;-70
2022/05/28 03:13:37;;;;;;;0.50;0.50;;;21.80;48.10;;;;;;5034135;28;20026;-70
2022/05/28 03:16:04;;;;;;;0.75;0.70;;;21.80;48.10;;;;;;5034896;28;20048;-70
2022/05/28 03:18:30;;;;;;;0.73;0.70;;;21.80;48.10;;;;;;5035226;28;20499;-70
2022/05/28 03:20:55;;;;;;;0.70;0.70;;;21.80;48.00;;;;;;5034747;28;20036;-70
2022/05/28 03:23:21;;;;;;;1.00;0.60;;;21.80;48.00;;;;;;5036074;28;20109;-69
2022/05/28 03:25:47;;;;;;;0.70;0.70;;;21.80;47.90;;;;;;5036115;28;20069;-70
2022/05/28 03:28:13;;;;;;;0.70;0.70;;;21.90;48.00;;;;;;5035812;28;20049;-70
2022/05/28 03:30:38;;;;;;;0.60;0.60;;;21.90;47.90;;;;;;5034656;28;20025;-70
2022/05/28 03:33:04;;;;;;;0.75;0.70;;;21.90;47.90;;;;;;5036001;28;20025;-70
2022/05/28 03:35:30;;;;;;;0.70;0.70;;;21.80;47.90;;;;;;5034398;28;20065;-70
2022/05/28 03:37:55;;;;;;;0.75;0.75;;;21.80;47.80;;;;;;5035722;28;20032;-70
2022/05/28 03:40:21;;;;;;;0.85;0.70;;;21.80;47.80;;;;;;5035293;28;20034;-70
2022/05/28 03:42:46;;;;;;;0.77;0.77;;;21.80;47.80;;;;;;5035305;28;20029;-70
2022/05/28 03:45:12;;;;;;;0.68;0.68;;;21.90;47.90;;;;;;5035627;28;20060;-70
2022/05/28 03:47:38;;;;;;;0.77;0.77;;;21.80;47.80;;;;;;5035891;28;20091;-70
2022/05/28 03:50:04;;;;;;;0.70;0.70;;;21.80;47.80;;;;;;5035466;28;20112;-70
2022/05/28 03:52:30;;;;;;;0.80;0.80;;;21.80;47.70;;;;;;5035612;28;20040;-70
2022/05/28 03:54:56;;;;;;;0.70;0.65;;;21.90;47.70;;;;;;5033867;28;20457;-71
2022/05/28 03:57:32;;;;;;;0.60;0.60;;;21.80;47.70;;;;;;5035063;28;20105;-70
2022/05/28 03:59:58;;;;;;;0.70;0.70;;;21.80;47.60;;;;;;5035701;28;20025;-69
2022/05/28 04:02:25;;;;;;;0.65;0.65;;;21.80;47.60;;;;;;5034702;28;20026;-70
2022/05/28 04:04:51;;;;;;;0.60;0.60;;;21.90;47.70;;;;;;5035107;28;20029;-68
2022/05/28 04:07:17;;;;;;;0.68;0.68;;;21.80;47.60;;;;;;5035465;28;20025;-69
2022/05/28 04:09:43;;;;;;;0.60;0.60;;;21.80;47.60;;;;;;5033858;28;20459;-69
2022/05/28 04:12:09;;;;;;;0.70;0.70;;;21.90;47.60;;;;;;5034871;28;20029;-69
2022/05/28 04:14:35;;;;;;;0.60;0.60;;;21.90;47.60;;;;;;5035026;28;20029;-70
2022/05/28 04:17:01;;;;;;;0.88;0.70;;;21.90;47.50;;;;;;5034794;28;20391;-70
2022/05/28 04:19:27;;;;;;;0.70;0.70;;;21.90;47.40;;;;;;5035114;28;20029;-70
2022/05/28 04:21:53;;;;;;;0.75;0.70;;;22.00;47.40;;;;;;5034789;28;20075;-70
2022/05/28 04:24:18;;;;;;;0.70;0.70;;;22.00;47.30;;;;;;5033705;28;20053;-70
2022/05/28 04:26:44;;;;;;;0.70;0.70;;;22.00;47.20;;;;;;5034544;28;20426;-70
2022/05/28 04:29:10;;;;;;;0.60;0.60;;;22.10;47.20;;;;;;5034965;28;20438;-70
2022/05/28 04:31:36;;;;;;;0.80;0.80;;;22.10;47.20;;;;;;5034281;28;20030;-71
2022/05/28 04:34:01;;;;;;;0.70;0.70;;;22.10;47.10;;;;;;5034675;28;20107;-70
2022/05/28 04:36:27;;;;;;;0.95;0.82;;;22.10;47.10;;;;;;5034700;28;20034;-70
2022/05/28 04:38:53;;;;;;;0.95;0.95;;;22.10;47.10;;;;;;5033171;28;20033;-70
2022/05/28 04:41:18;;;;;;;1.00;1.00;;;22.20;47.10;;;;;;5034177;28;20452;-70
2022/05/28 04:43:44;;;;;;;0.77;0.77;;;22.20;47.00;;;;;;5033323;28;20103;-70
2022/05/28 04:46:10;;;;;;;0.80;0.80;;;22.20;47.00;;;;;;5034182;28;20045;-70
2022/05/28 04:48:36;;;;;;;0.95;0.95;;;22.20;46.90;;;;;;5034704;28;20037;-70
2022/05/28 04:51:02;;;;;;;0.70;0.70;;;22.20;46.90;;;;;;5034276;28;20414;-70
2022/05/28 04:53:28;;;;;;;0.50;0.50;;;22.20;46.80;;;;;;5034127;28;20021;-70
2022/05/28 04:55:53;;;;;;;0.70;0.70;;;22.20;46.80;;;;;;5034353;28;20064;-70
2022/05/28 04:58:19;;;;;;;0.70;0.70;;;22.20;46.80;;;;;;5032965;28;20096;-70
2022/05/28 05:00:46;;;;;;;1.17;1.00;;;22.20;46.70;;;;;;5034344;28;20025;-70
2022/05/28 05:03:12;;;;;;;1.10;0.90;;;22.30;46.80;;;;;;5032754;28;20025;-69
2022/05/28 05:05:39;;;;;;;0.68;0.68;;;22.20;46.70;;;;;;5029769;28;20026;-69
2022/05/28 05:08:05;;;;;;;0.88;0.88;;;22.30;46.70;;;;;;5024844;28;20029;-69
2022/05/28 05:10:31;;;;;;;0.80;0.80;;;22.20;46.60;;;;;;5032469;28;20037;-70
2022/05/28 05:12:59;;;;;;;0.57;0.57;;;22.30;46.60;;;;;;5033835;28;20127;-69
2022/05/28 05:15:24;;;;;;;1.17;0.93;;;22.30;46.60;;;;;;5032487;28;20041;-69
2022/05/28 05:17:50;;;;;;;0.80;0.80;;;22.30;46.60;;;;;;5018981;28;20022;-70
2022/05/28 05:20:16;;;;;;;0.65;0.60;;;22.30;46.60;;;;;;5015450;28;20029;-69
2022/05/28 05:22:42;;;;;;;0.73;0.73;;;22.30;46.50;;;;;;5028544;28;20103;-70
2022/05/28 05:25:10;;;;;;;0.77;0.77;;;22.40;46.50;;;;;;5013997;28;20030;-69
2022/05/28 05:27:35;;;;;;;1.30;1.05;;;22.40;46.40;;;;;;5014083;28;20405;-70
2022/05/28 05:30:02;;;;;;;1.00;0.80;;;22.40;46.40;;;;;;5030935;28;20022;-69
2022/05/28 05:32:27;;;;;;;0.70;0.70;;;22.40;47.00;;;;;;5032393;28;20527;-70
2022/05/28 05:34:53;;;;;;;0.90;0.82;;;22.40;46.40;;;;;;5032968;28;20026;-70
2022/05/28 05:37:19;;;;;;;1.42;0.90;;;22.40;46.40;;;;;;5023143;28;20461;-71
2022/05/28 05:40:17;;;;;;;0.68;0.68;;;22.40;46.30;;;;;;5013607;28;20437;-71
2022/05/28 05:42:59;;;;;;;0.70;0.70;;;22.40;46.30;;;;;;5013120;28;20534;-70
2022/05/28 05:45:24;;;;;;;0.88;0.88;;;22.40;46.30;;;;;;5013952;28;20034;-70
2022/05/28 05:47:50;;;;;;;0.82;0.82;;;22.40;46.20;;;;;;5023566;28;20032;-70
2022/05/28 05:50:19;;;;;;;0.98;0.80;;;22.50;46.30;;;;;;5033325;28;20018;-70
2022/05/28 05:52:44;;;;;;;1.17;0.65;;;22.60;46.30;;;;;;5033786;28;20061;-69
2022/05/28 05:55:10;;;;;;;0.80;0.80;;;22.60;46.20;;;;;;5032532;28;21925;-69
2022/05/28 05:57:36;;;;;;;1.00;0.88;;;22.60;46.10;;;;;;5033459;28;20083;-70
2022/05/28 06:00:03;;;;;;;1.42;1.00;;;22.60;46.10;;;;;;5015604;28;20100;-70
2022/05/28 06:02:29;;;;;;;1.33;0.85;;;22.60;46.10;;;;;;5011821;28;20057;-70
2022/05/28 06:04:54;;;;;;;1.52;1.08;;;22.70;46.10;;;;;;5013527;28;20058;-70
2022/05/28 06:07:20;;;;;;;0.93;0.93;;;22.70;46.10;;;;;;5012343;28;20092;-70
2022/05/28 06:09:46;;;;;;;1.00;0.80;;;22.70;46.00;;;;;;5013818;28;20034;-70
2022/05/28 06:12:11;;;;;;;1.00;1.00;;;22.80;46.00;;;;;;5012846;28;20096;-70
2022/05/28 06:14:37;;;;;;;0.80;0.80;;;22.90;46.00;;;;;;5013678;28;20468;-69
2022/05/28 06:17:03;;;;;;;0.80;0.80;;;22.90;46.00;;;;;;5013330;28;20361;-70
2022/05/28 06:19:28;;;;;;;0.95;0.95;;;22.90;45.80;;;;;;5013416;28;20375;-70
2022/05/28 06:21:59;;;;;;;0.77;0.77;;;22.90;45.80;;;;;;5013256;28;20080;-70
2022/05/28 06:24:25;;;;;;;0.80;0.80;;;23.00;45.80;;;;;;5012317;28;20026;-70
2022/05/28 06:26:50;;;;;;;1.10;1.00;;;23.00;45.80;;;;;;4995578;28;20058;-71
2022/05/28 06:29:16;;;;;;;0.70;0.70;;;23.10;45.70;;;;;;5012977;28;20041;-71
2022/05/28 06:31:42;;;;;;;0.98;0.80;;;23.10;45.70;;;;;;5012764;28;20030;-70
2022/05/28 06:34:07;;;;;;;0.88;0.60;;;23.10;45.60;;;;;;5013881;28;20464;-70
2022/05/28 06:36:33;;;;;;;0.70;0.70;;;23.20;45.50;;;;;;5011953;28;20151;-69
2022/05/28 06:38:59;;;;;;;1.20;0.90;;;23.30;45.50;;;;;;5013377;28;20065;-69
2022/05/28 06:41:24;;;;;;;0.70;0.70;;;23.40;45.50;;;;;;5013368;28;20060;-70
2022/05/28 06:43:53;;;;;;;0.80;0.80;;;23.40;45.40;;;;;;5013170;28;20488;-69
2022/05/28 06:46:19;;;;;;;0.95;0.82;;;23.50;45.30;;;;;;5013776;28;20034;-70
2022/05/28 06:48:45;;;;;;;2.00;0.90;;;23.50;45.20;;;;;;5015208;28;20044;-70
2022/05/28 06:51:11;;;;;;;1.35;1.02;;;23.50;45.10;;;;;;5017218;28;20025;-68
2022/05/28 06:53:42;;;;;;;0.80;0.80;;;23.60;45.10;;;;;;5016973;28;20037;-70
2022/05/28 06:56:09;;;;;;;0.90;0.90;;;23.60;45.10;;;;;;5014857;28;20084;-70
2022/05/28 06:58:35;;;;;;;1.05;1.00;;;23.70;45.10;;;;;;5016406;28;20037;-71
2022/05/28 07:01:02;;;;;;;0.80;0.80;;;23.70;45.00;;;;;;5015140;28;20029;-69
2022/05/28 07:03:29;;;;;;;1.10;1.00;;;23.80;44.90;;;;;;5016646;28;20465;-71
2022/05/28 07:05:55;;;;;;;1.02;0.90;;;23.80;44.80;;;;;;5015169;28;20034;-69
2022/05/28 07:08:21;;;;;;;0.77;0.77;;;23.90;44.80;;;;;;5016092;28;20022;-69
2022/05/28 07:10:50;;;;;;;1.48;0.77;;;23.90;44.70;;;;;;5016341;28;20037;-70
2022/05/28 07:13:17;;;;;;;2.03;1.02;;;24.00;44.70;;;;;;5019510;28;20036;-71
2022/05/28 07:15:43;;;;;;;1.85;0.93;;;24.00;44.60;;;;;;5032803;28;20041;-83
2022/05/28 07:18:09;;;;;;;1.13;0.77;;;24.00;44.60;;;;;;5017485;28;20084;-80
2022/05/28 07:20:35;;;;;;;1.20;0.90;;;24.00;44.50;;;;;;5014474;28;20448;-83
2022/05/28 07:23:18;;;;;;;0.90;0.90;;;24.00;44.50;;;;;;5015455;28;20103;-83
2022/05/28 07:25:44;;;;;;;1.15;1.05;;;24.10;44.40;;;;;;5015039;28;20026;-82
2022/05/28 07:28:30;;;;;;;3.63;1.00;;;24.20;44.50;;;;;;5016570;28;20053;-84
2022/05/28 07:31:09;;;;;;;0.80;0.80;;;24.20;44.50;;;;;;5020687;28;20045;-85
2022/05/28 07:33:37;;;;;;;1.52;0.98;;;24.20;44.50;;;;;;5015203;28;20036;-85
2022/05/28 07:36:04;;;;;;;0.80;0.80;;;24.30;44.50;;;;;;5016173;28;20030;-84
2022/05/28 07:38:32;;;;;;;1.85;1.00;;;24.30;44.40;;;;;;5016138;28;20032;-85
2022/05/28 07:41:04;;;;;;;1.00;1.00;;;24.30;44.40;;;;;;5016117;28;20076;-86
2022/05/28 07:43:30;;;;;;;0.90;0.90;;;24.30;44.30;;;;;;5016580;28;20034;-85
2022/05/28 07:45:56;;;;;;;0.85;0.85;;;24.30;44.40;;;;;;5016508;28;20034;-85
2022/05/28 07:48:21;;;;;;;0.85;0.80;;;24.30;44.40;;;;;;5015878;28;20026;-86
2022/05/28 07:50:47;;;;;;;1.65;0.90;;;24.30;44.40;;;;;;5015882;28;20083;-84
2022/05/28 07:53:13;;;;;;;0.77;0.77;;;24.30;44.40;;;;;;5015947;28;20535;-85
2022/05/28 07:55:39;;;;;;;0.80;0.80;;;24.20;44.30;;;;;;5014996;28;20034;-85
2022/05/28 07:58:14;;;;;;;1.48;1.13;;;24.30;44.30;;;;;;5015467;28;20030;-86
2022/05/28 08:00:42;;;;;;;1.65;1.10;;;24.30;44.30;;;;;;5014857;28;20072;-86
2022/05/28 08:03:09;;;;;;;0.88;0.88;;;24.30;44.30;;;;;;5015537;28;20048;-84
2022/05/28 08:05:36;;;;;;;1.35;1.25;;;24.30;44.30;;;;;;5015320;28;20044;-85
2022/05/28 08:08:03;;;;;;;1.23;1.05;;;24.40;44.30;;;;;;5015581;28;20018;-84
2022/05/28 08:10:29;;;;;;;1.02;0.80;;;24.40;44.30;;;;;;5015724;28;20050;-85
2022/05/28 08:13:10;;;;;;;1.45;1.27;;;24.40;44.20;;;;;;5015770;28;20057;-87
2022/05/28 08:15:59;;;;;;;1.00;1.00;;;24.50;44.10;;;;;;5014415;28;20484;-79
2022/05/28 08:18:25;;;;;;;1.20;1.10;;;24.50;44.10;;;;;;5014750;28;20022;-67
2022/05/28 08:23:38;;;;;;;1.58;0.90;;;24.60;44.20;;;;;;5014948;28;20057;-67
2022/05/28 08:26:04;;;;;;;0.98;0.95;;;24.70;44.20;;;;;;5014830;28;20022;-66
2022/05/28 08:28:30;;;;;;;1.20;1.10;;;24.70;44.00;;;;;;5014649;28;20029;-67
2022/05/28 08:30:56;;;;;;;1.23;1.13;;;24.70;43.90;;;;;;5014807;28;20030;-67
2022/05/28 08:33:21;;;;;;;1.35;1.10;;;24.70;44.00;;;;;;5013481;28;20029;-67
2022/05/28 08:35:50;;;;;;;3.88;1.20;;;24.70;44.00;;;;;;5014932;28;20076;-66
2022/05/28 08:38:18;;;;;;;1.20;1.10;;;24.70;44.00;;;;;;5014544;28;20026;-68
2022/05/28 08:40:48;;;;;;;1.50;1.40;;;24.70;44.00;;;;;;5013373;28;20041;-68
2022/05/28 08:43:16;;;;;;;1.67;1.33;;;24.80;44.10;;;;;;5013774;28;20054;-67
2022/05/28 08:45:45;;;;;;;1.58;1.45;;;24.70;43.90;;;;;;5013650;28;20121;-67
2022/05/28 08:48:15;;;;;;;1.30;1.20;;;24.60;43.90;;;;;;5014410;28;20030;-68
2022/05/28 08:50:51;;;;;;;3.58;1.30;;;24.60;44.00;;;;;;5014332;28;20121;-72
2022/05/28 08:53:22;;;;;;;1.90;1.17;;;24.50;44.10;;;;;;5014327;28;20095;-72
2022/05/28 08:55:50;;;;;;;3.25;1.15;;;24.50;44.20;;;;;;5013596;28;20041;-72
2022/05/28 08:58:20;;;;;;;4.90;1.50;;;24.40;44.30;;;;;;5014951;28;20436;-71
2022/05/28 09:01:06;;;;;;;2.95;1.27;;;24.40;44.40;;;;;;5014428;28;20164;-72
2022/05/28 09:03:42;;;;;;;1.70;1.50;;;24.40;44.40;;;;;;5014022;28;20109;-72
2022/05/28 09:06:12;;;;;;;2.60;1.55;;;24.20;44.40;;;;;;5013130;28;20033;-71
2022/05/28 09:08:50;;;;;;;1.75;1.30;;;24.20;44.60;;;;;;5012917;28;20026;-71
2022/05/28 09:11:31;;;;;;;2.38;1.38;;;24.20;44.70;;;;;;5012287;28;20033;-72
2022/05/28 09:14:08;;;;;;;1.90;1.30;;;24.20;44.70;;;;;;5012767;28;20056;-73
2022/05/28 09:16:37;;;;;;;1.65;1.30;;;24.20;44.80;;;;;;5013491;28;20060;-72
2022/05/28 09:19:06;;;;;;;2.63;1.52;;;24.10;44.80;;;;;;5012734;28;20026;-71
2022/05/28 09:21:32;;;;;;;1.50;1.40;;;24.20;44.80;;;;;;5012780;28;20500;-71
2022/05/28 09:24:00;;;;;;;1.40;1.30;;;24.10;44.70;;;;;;5013890;28;20034;-71
2022/05/28 09:26:36;;;;;;;1.50;1.40;;;24.10;44.70;;;;;;5012651;28;20055;-74
2022/05/28 09:29:15;;;;;;;2.05;1.58;;;24.00;44.70;;;;;;5014089;28;20034;-72
2022/05/28 09:32:15;;;;;;;1.25;1.15;;;24.00;44.70;;;;;;5014281;28;20117;-72
2022/05/28 09:34:46;;;;;;;2.67;1.17;;;24.00;44.80;;;;;;5012867;28;20395;-72
2022/05/28 09:37:12;;;;;;;1.17;1.08;;;23.90;44.80;;;;;;5012461;28;20038;-71
2022/05/28 09:40:00;;;;;;;1.48;1.38;;;23.90;44.80;;;;;;5013432;28;20033;-72
2022/05/28 09:43:05;;;;;;;1.23;1.13;;;23.90;44.80;;;;;;5013945;28;20022;-71
2022/05/28 09:45:57;;;;;;;1.98;1.30;;;23.90;44.80;;;;;;5012153;28;20136;-71
2022/05/28 09:48:26;;;;;;;1.20;1.10;;;23.90;44.80;;;;;;5012329;28;20088;-72
2022/05/28 09:50:52;;;;;;;1.30;1.15;;;23.90;44.80;;;;;;5013215;28;20149;-71
2022/05/28 09:56:51;;;;;;;1.63;1.40;;;23.90;44.60;;;;;;5013579;28;20041;-72
2022/05/28 09:59:32;;;;;;;1.40;1.30;;;23.90;44.40;;;;;;5013063;28;20109;-73
2022/05/28 10:02:27;;;;;;;1.15;1.00;;;23.90;44.50;;;;;;5013551;28;20124;-72
2022/05/28 10:05:16;;;;;;;1.40;1.20;;;23.90;44.40;;;;;;5013154;28;20042;-72
2022/05/28 10:07:46;;;;;;;1.58;1.30;;;23.80;44.20;;;;;;5013726;28;20025;-72
2022/05/28 10:10:26;;;;;;;1.83;1.10;;;23.80;44.40;;;;;;5013644;28;20022;-74
2022/05/28 10:12:52;;;;;;;1.88;1.42;;;23.90;44.40;;;;;;5012940;28;20033;-73
2022/05/28 10:15:28;;;;;;;2.58;2.30;;;23.90;44.30;;;;;;5012199;28;20472;-72
2022/05/28 10:18:03;;;;;;;2.00;1.80;;;24.00;44.20;;;;;;5013088;28;20022;-72
2022/05/28 10:20:29;;;;;;;2.08;1.88;;;24.10;44.20;;;;;;5012087;28;20049;-73
2022/05/28 10:23:01;;;;;;;1.70;1.40;;;24.10;44.10;;;;;;5015696;28;20041;-73
2022/05/28 10:25:48;;;;;;;1.25;1.20;;;24.20;44.10;;;;;;5015943;28;20037;-73
2022/05/28 10:28:29;;;;;;;1.52;1.42;;;24.20;43.60;;;;;;4996417;28;20125;-74
2022/05/28 10:30:55;;;;;;;0.90;0.90;;;24.20;43.80;;;;;;4997668;28;20030;-72
2022/05/28 10:33:25;;;;;;;1.30;1.20;;;24.30;43.90;;;;;;4996249;28;20479;-73
2022/05/28 10:35:52;;;;;;;1.48;1.10;;;24.40;43.70;;;;;;4996763;28;20416;-72
2022/05/28 10:38:27;;;;;;;1.25;1.13;;;24.40;43.60;;;;;;4996182;28;20081;-72
2022/05/28 10:40:55;;;;;;;1.27;1.20;;;24.50;43.40;;;;;;4996255;28;20030;-72
2022/05/28 10:43:28;;;;;;;2.33;1.10;;;24.50;43.30;;;;;;4997359;28;20030;-73
2022/05/28 10:46:09;;;;;;;1.40;1.30;;;24.60;43.20;;;;;;4997393;28;20034;-72
2022/05/28 10:49:03;;;;;;;1.35;1.25;;;24.70;43.10;;;;;;4995893;28;20037;-72
2022/05/28 10:51:37;;;;;;;1.23;1.00;;;24.70;42.90;;;;;;4996295;28;20396;-72
2022/05/28 10:54:22;;;;;;;1.65;1.20;;;24.70;42.90;;;;;;4997270;28;20030;-73
2022/05/28 10:56:51;;;;;;;;;;;24.70;42.90;;;;;;4997463;28;20227;-73
2022/05/28 10:59:55;;;;;;;1.80;1.20;;;24.80;42.30;;;;;;4995962;28;20403;-72
2022/05/28 11:02:39;;;;;;;0.93;0.80;;;24.70;42.40;;;;;;4997030;28;20030;-73
2022/05/28 11:05:05;;;;;;;;;;;24.70;42.70;;;;;;4997615;28;20097;-72
2022/05/28 11:07:48;;;;;;;1.23;1.00;;;24.70;42.20;;;;;;4995965;28;20353;-72
2022/05/28 11:10:36;;;;;;;1.27;1.17;;;24.70;42.60;;;;;;4995843;28;20073;-73
2022/05/28 11:13:38;;;;;;;0.90;0.90;;;24.70;42.40;;;;;;4996660;28;20113;-72
2022/05/28 11:16:23;;;;;;;2.42;1.15;;;24.80;42.20;;;;;;4996660;28;20380;-72
2022/05/28 11:18:49;;;;;;;2.92;1.10;;;24.70;42.30;;;;;;4997077;28;20034;-73
2022/05/28 11:21:20;;;;;;;1.40;1.02;;;24.80;42.30;;;;;;4996464;28;20030;-73
2022/05/28 11:24:42;;;;;;;1.98;1.10;;;24.80;42.20;;;;;;4995722;28;20026;-73
2022/05/28 11:27:25;;;;;;;1.02;0.98;;;24.90;41.60;;;;;;5006355;28;20045;-74
2022/05/28 11:30:06;;;;;;;0.97;0.97;;;24.90;41.80;;;;;;4976499;28;20397;-73
2022/05/28 11:33:00;;;;;;;1.75;1.00;;;25.00;41.60;;;;;;4976357;28;20050;-73
2022/05/28 11:35:42;;;;;;;0.90;0.90;;;25.00;41.60;;;;;;4976902;28;20358;-72
2022/05/28 11:38:46;;;;;;;1.60;0.98;;;25.10;41.60;;;;;;4976817;28;20073;-71
2022/05/28 11:41:34;;;;;;;1.10;1.00;;;25.10;41.50;;;;;;4975200;28;20050;-72
2022/05/28 11:44:24;;;;;;;2.13;1.25;;;25.10;41.60;;;;;;4975589;28;20066;-74
2022/05/28 11:47:02;;;;;;;1.23;1.00;;;25.10;41.40;;;;;;4976996;28;20031;-74
2022/05/28 11:52:54;;;;;;;1.25;0.98;;;25.20;41.30;;;;;;4976646;28;20392;-73
2022/05/28 11:55:26;;;;;;;2.35;1.30;;;25.20;41.30;;;;;;4976325;28;20539;-73
2022/05/28 11:58:16;;;;;;;0.93;0.80;;;25.30;41.40;;;;;;4976549;28;20073;-72
2022/05/28 12:00:48;;;;;;;1.35;1.25;;;25.30;40.90;;;;;;4976146;28;20029;-72
2022/05/28 12:03:42;;;;;;;1.50;1.00;;;25.40;41.30;;;;;;4975487;28;20053;-73
2022/05/28 12:06:34;;;;;;;1.23;1.13;;;25.40;40.60;;;;;;4974106;28;20047;-73
2022/05/28 12:09:15;;;;;;;1.00;1.00;;;25.40;40.80;;;;;;4975027;28;20031;-73
2022/05/28 12:12:01;;;;;;;1.65;0.98;;;25.50;41.00;;;;;;4976276;28;20113;-73
2022/05/28 12:14:39;;;;;;;2.05;1.10;;;25.50;40.90;;;;;;4975108;28;20031;-74
2022/05/28 12:17:10;;;;;;;1.10;1.00;;;25.60;40.80;;;;;;4976039;28;20035;-73
2022/05/28 12:19:45;;;;;;;0.90;0.90;;;25.60;40.70;;;;;;4974947;28;20374;-73
2022/05/28 12:22:41;;;;;;;1.13;1.02;;;25.70;40.60;;;;;;4974964;28;20065;-73
2022/05/28 12:25:16;;;;;;;1.17;1.00;;;25.70;40.40;;;;;;4974985;28;20050;-73
2022/05/28 12:27:53;;;;;;;1.20;1.08;;;25.80;40.50;;;;;;5002938;28;20470;-72
2022/05/28 12:30:51;;;;;;;1.27;0.88;;;25.80;40.40;;;;;;5015084;28;20025;-72
2022/05/28 12:33:51;;;;;;;1.30;1.00;;;25.80;40.40;;;;;;5014853;28;20026;-72
2022/05/28 12:36:17;;;;;;;1.05;0.98;;;25.80;40.30;;;;;;5027946;28;20180;-71
2022/05/28 12:38:59;;;;;;;1.10;1.00;;;25.90;40.50;;;;;;5014631;28;20109;-72
2022/05/28 12:41:29;;;;;;;1.20;1.10;;;26.00;40.40;;;;;;5013468;28;20029;-73
2022/05/28 12:43:58;;;;;;;0.98;0.98;;;26.10;40.50;;;;;;5014330;28;20033;-72
2022/05/28 12:46:55;;;;;;;1.20;0.88;;;26.20;40.30;;;;;;5013029;28;20040;-73
2022/05/28 12:49:26;;;;;;;0.95;0.95;;;26.30;40.00;;;;;;5013395;28;20026;-72
2022/05/28 12:52:19;;;;;;;1.10;1.10;;;26.40;40.00;;;;;;5014505;28;20468;-72
2022/05/28 12:54:45;;;;;;;0.90;0.90;;;26.50;39.70;;;;;;5014425;28;20532;-72
2022/05/28 12:57:26;;;;;;;0.95;0.95;;;26.40;39.80;;;;;;5014387;28;20121;-72
2022/05/28 13:00:19;;;;;;;1.52;1.13;;;26.50;39.60;;;;;;5014446;28;20022;-73
2022/05/28 13:02:46;;;;;;;0.90;0.90;;;26.50;39.50;;;;;;5013221;28;20095;-71
2022/05/28 13:05:32;;;;;;;1.13;0.90;;;26.60;39.60;;;;;;5014202;28;20026;-73
2022/05/28 13:08:35;;;;;;;0.75;0.75;;;26.60;39.50;;;;;;5014546;28;20378;-73
2022/05/28 13:11:22;;;;;;;1.30;1.20;;;26.80;39.00;;;;;;5012606;28;20030;-72
2022/05/28 13:14:19;;;;;;;1.77;1.30;;;26.90;39.20;;;;;;5012476;28;20116;-73
2022/05/28 13:16:53;;;;;;;1.45;1.20;;;27.00;38.90;;;;;;5014154;28;20034;-73
2022/05/28 13:20:19;;;;;;;1.23;0.90;;;27.20;39.20;;;;;;5013906;28;20097;-72
2022/05/28 13:22:59;;;;;;;1.13;1.10;;;27.20;38.70;;;;;;4995269;28;20454;-73
2022/05/28 13:25:40;;;;;;;2.35;1.20;;;27.30;38.90;;;;;;5012235;28;20030;-73
2022/05/28 13:28:29;;;;;;;2.03;1.52;;;27.40;39.00;;;;;;5012969;28;20385;-73